createdAt,value
2022-12-25T00:02:10.244Z,100498.66
2022-12-25T00:04:47.020Z,100517.66
2022-12-25T00:07:22.914Z,100510.28
2022-12-25T00:09:55.902Z,100524.03
2022-12-25T00:12:32.014Z,100525.06
2022-12-25T00:15:05.573Z,100535.28
2022-12-25T00:17:41.862Z,100528.25
2022-12-25T00:20:20.549Z,100535.41
2022-12-25T00:22:53.790Z,100534.47
2022-12-25T00:25:32.874Z,100537.13
2022-12-25T00:28:13.073Z,100531.19
2022-12-25T00:30:52.665Z,100539.97
2022-12-25T00:33:28.566Z,100536.41
2022-12-25T00:36:02.825Z,100537.94
2022-12-25T00:38:40.549Z,100534.94
2022-12-25T00:41:15.896Z,100542.06
2022-12-25T00:43:48.696Z,100549.91
2022-12-25T00:46:22.354Z,100550.84
2022-12-25T00:49:04.593Z,100553.81
2022-12-25T00:51:37.661Z,100547.47
2022-12-25T00:54:17.346Z,100558.25
2022-12-25T00:56:53.539Z,100548.09
2022-12-25T00:59:27.081Z,100547.69
2022-12-25T01:02:03.478Z,100547.53
2022-12-25T01:04:39.401Z,100549.81
2022-12-25T01:07:12.652Z,100539.66
2022-12-25T01:09:49.010Z,100547.38
2022-12-25T01:12:27.369Z,100547.41
2022-12-25T01:15:00.863Z,100547.13
2022-12-25T01:17:34.510Z,100549.31
2022-12-25T01:20:12.286Z,100559.09
2022-12-25T01:22:45.801Z,100556.31
2022-12-25T01:25:21.635Z,100550.28
2022-12-25T01:28:02.776Z,100548.28
2022-12-25T01:30:38.941Z,100547.97
2022-12-25T01:33:12.142Z,100549.69
2022-12-25T01:35:44.954Z,100542.25
2022-12-25T01:38:18.094Z,100547.00
2022-12-25T01:40:51.008Z,100551.59
2022-12-25T01:43:29.216Z,100553.25
2022-12-25T01:46:08.060Z,100552.03
2022-12-25T01:48:46.526Z,100554.09
2022-12-25T01:51:47.949Z,100562.72
2022-12-25T01:54:28.745Z,100568.34
2022-12-25T01:57:06.069Z,100573.63
2022-12-25T01:59:39.725Z,100574.06
2022-12-25T02:02:16.592Z,100578.81
2022-12-25T02:05:31.781Z,100570.59
2022-12-25T02:08:14.946Z,100577.09
2022-12-25T02:10:53.144Z,100578.72
2022-12-25T02:13:26.482Z,100569.75
2022-12-25T02:16:05.890Z,100570.53
2022-12-25T02:18:58.373Z,100577.03
2022-12-25T02:21:56.136Z,100569.38
2022-12-25T02:24:52.525Z,100568.25
2022-12-25T02:27:31.473Z,100567.88
2022-12-25T02:30:13.599Z,100567.53
2022-12-25T02:33:00.439Z,100566.34
2022-12-25T02:35:40.349Z,100568.53
2022-12-25T02:38:21.834Z,100584.78
2022-12-25T02:41:01.554Z,100582.56
2022-12-25T02:43:44.785Z,100571.53
2022-12-25T02:46:24.036Z,100568.22
2022-12-25T02:49:12.323Z,100577.06
2022-12-25T02:51:52.608Z,100579.78
2022-12-25T02:54:32.844Z,100589.47
2022-12-25T02:57:14.743Z,100601.56
2022-12-25T02:59:52.197Z,100595.84
2022-12-25T03:02:28.565Z,100602.91
2022-12-25T03:05:06.307Z,100604.28
2022-12-25T03:07:42.620Z,100601.84
2022-12-25T03:10:15.647Z,100607.38
2022-12-25T03:13:13.721Z,100604.97
2022-12-25T03:15:48.309Z,100607.66
2022-12-25T03:18:28.716Z,100607.13
2022-12-25T03:21:01.814Z,100600.63
2022-12-25T03:23:37.270Z,100607.53
2022-12-25T03:26:10.384Z,100617.56
2022-12-25T03:28:44.042Z,100619.09
2022-12-25T03:31:36.583Z,100620.00
2022-12-25T03:34:22.252Z,100617.41
2022-12-25T03:37:33.402Z,100619.44
2022-12-25T03:40:14.299Z,100619.03
2022-12-25T03:42:56.660Z,100619.03
2022-12-25T03:45:42.684Z,100619.03
2022-12-25T03:48:16.608Z,100617.69
2022-12-25T03:51:12.327Z,100625.44
2022-12-25T03:53:54.527Z,100620.59
2022-12-25T03:56:30.858Z,100632.91
2022-12-25T03:59:03.815Z,100634.94
2022-12-25T04:01:36.825Z,100634.59
2022-12-25T04:04:10.007Z,100634.28
2022-12-25T04:06:43.116Z,100645.16
2022-12-25T04:09:18.483Z,100634.66
2022-12-25T04:11:51.335Z,100641.00
2022-12-25T04:14:24.789Z,100650.63
2022-12-25T04:16:57.846Z,100648.44
2022-12-25T04:19:31.196Z,100652.09
2022-12-25T04:22:04.958Z,100654.50
2022-12-25T04:24:37.990Z,100656.34
2022-12-25T04:27:11.120Z,100656.34
2022-12-25T04:29:44.068Z,100674.09
2022-12-25T04:32:17.041Z,100669.88
2022-12-25T04:34:49.900Z,100672.13
2022-12-25T04:37:26.580Z,100672.72
2022-12-25T04:39:59.394Z,100672.53
2022-12-25T04:42:32.795Z,100666.91
2022-12-25T04:45:05.948Z,100671.19
2022-12-25T04:47:38.982Z,100688.84
2022-12-25T04:50:14.803Z,100682.38
2022-12-25T04:52:48.228Z,100691.50
2022-12-25T04:55:24.030Z,100692.94
2022-12-25T04:57:57.201Z,100697.41
2022-12-25T05:00:33.594Z,100700.66
2022-12-25T05:03:07.497Z,100699.84
2022-12-25T05:05:43.092Z,100699.00
2022-12-25T05:08:15.906Z,100705.75
2022-12-25T05:10:52.517Z,100710.56
2022-12-25T05:13:25.581Z,100716.03
2022-12-25T05:15:59.170Z,100722.91
2022-12-25T05:18:32.891Z,100715.41
2022-12-25T05:21:15.331Z,100719.28
2022-12-25T05:23:52.932Z,100713.38
2022-12-25T05:26:27.493Z,100717.81
2022-12-25T05:29:03.493Z,100717.03
2022-12-25T05:31:37.022Z,100715.59
2022-12-25T05:34:10.034Z,100720.69
2022-12-25T05:36:43.442Z,100718.69
2022-12-25T05:39:16.819Z,100720.69
2022-12-25T05:41:49.779Z,100719.88
2022-12-25T05:44:25.248Z,100726.09
2022-12-25T05:46:58.227Z,100730.97
2022-12-25T05:49:31.909Z,100740.06
2022-12-25T05:52:04.877Z,100741.09
2022-12-25T05:54:37.978Z,100754.41
2022-12-25T05:57:13.844Z,100760.16
2022-12-25T05:59:46.720Z,100768.59
2022-12-25T06:02:19.775Z,100773.47
2022-12-25T06:04:52.939Z,100766.09
2022-12-25T06:07:26.447Z,100768.75
2022-12-25T06:09:59.911Z,100775.41
2022-12-25T06:12:33.463Z,100777.16
2022-12-25T06:15:07.642Z,100763.56
2022-12-25T06:17:41.788Z,100764.44
2022-12-25T06:20:16.084Z,100783.50
2022-12-25T06:22:49.958Z,100784.31
2022-12-25T06:25:29.414Z,100792.72
2022-12-25T06:28:02.565Z,100794.91
2022-12-25T06:30:35.740Z,100796.09
2022-12-25T06:33:08.974Z,100795.28
2022-12-25T06:35:42.804Z,100799.94
2022-12-25T06:38:15.915Z,100815.88
2022-12-25T06:40:49.079Z,100819.03
2022-12-25T06:43:22.155Z,100815.19
2022-12-25T06:45:55.413Z,100823.97
2022-12-25T06:48:30.206Z,100820.69
2022-12-25T06:51:04.103Z,100829.06
2022-12-25T06:53:40.224Z,100829.69
2022-12-25T06:56:16.465Z,100826.88
2022-12-25T06:58:53.178Z,100826.47
2022-12-25T07:01:33.991Z,100829.47
2022-12-25T07:04:17.679Z,100837.19
2022-12-25T07:06:50.400Z,100840.47
2022-12-25T07:09:23.349Z,100846.75
2022-12-25T07:12:05.563Z,100847.38
2022-12-25T07:14:38.679Z,100846.25
2022-12-25T07:17:12.036Z,100839.66
2022-12-25T07:19:47.102Z,100845.16
2022-12-25T07:22:20.241Z,100856.13
2022-12-25T07:24:56.155Z,100863.78
2022-12-25T07:27:30.135Z,100864.41
2022-12-25T07:30:03.730Z,100856.56
2022-12-25T07:32:36.997Z,100854.13
2022-12-25T07:35:10.019Z,100875.03
2022-12-25T07:37:43.358Z,100876.06
2022-12-25T07:40:17.773Z,100878.38
2022-12-25T07:42:50.657Z,100886.91
2022-12-25T07:45:26.457Z,100892.16
2022-12-25T07:48:04.969Z,100895.88
2022-12-25T07:50:38.876Z,100908.06
2022-12-25T07:53:11.923Z,100897.41
2022-12-25T07:55:45.040Z,100908.91
2022-12-25T07:58:23.103Z,100906.66
2022-12-25T08:01:04.048Z,100912.66
2022-12-25T08:03:37.658Z,100904.44
2022-12-25T08:06:11.718Z,100909.38
2022-12-25T08:08:45.177Z,100915.34
2022-12-25T08:11:18.367Z,100915.09
2022-12-25T08:13:54.351Z,100909.66
2022-12-25T08:16:31.384Z,100906.78
2022-12-25T08:19:04.552Z,100911.66
2022-12-25T08:21:38.131Z,100908.94
2022-12-25T08:24:11.294Z,100918.34
2022-12-25T08:26:44.430Z,100913.09
2022-12-25T08:29:17.818Z,100921.44
2022-12-25T08:31:52.401Z,100922.91
2022-12-25T08:34:26.047Z,100916.56
2022-12-25T08:36:59.555Z,100911.00
2022-12-25T08:39:32.649Z,100912.59
2022-12-25T08:42:05.723Z,100914.88
2022-12-25T08:44:39.010Z,100925.78
2022-12-25T08:47:12.092Z,100910.31
2022-12-25T08:49:45.434Z,100918.63
2022-12-25T08:52:19.177Z,100919.81
2022-12-25T08:54:52.916Z,100920.66
2022-12-25T08:57:26.479Z,100926.44
2022-12-25T08:59:59.700Z,100931.00
2022-12-25T09:02:35.983Z,100930.28
2022-12-25T09:05:10.971Z,100917.59
2022-12-25T09:07:47.410Z,100924.88
2022-12-25T09:10:24.034Z,100928.19
2022-12-25T09:12:59.951Z,100920.53
2022-12-25T09:15:33.400Z,100933.09
2022-12-25T09:18:09.737Z,100935.69
2022-12-25T09:20:44.963Z,100937.06
2022-12-25T09:23:18.278Z,100932.16
2022-12-25T09:25:54.327Z,100924.88
2022-12-25T09:28:31.424Z,100926.84
2022-12-25T09:31:05.007Z,100926.38
2022-12-25T09:33:38.437Z,100927.16
2022-12-25T09:36:11.597Z,100929.00
2022-12-25T09:38:44.895Z,100930.06
2022-12-25T09:41:34.579Z,100930.19
2022-12-25T09:44:13.216Z,100922.59
2022-12-25T09:47:04.638Z,100916.31
2022-12-25T09:49:56.144Z,100925.50
2022-12-25T09:52:46.522Z,100928.53
2022-12-25T09:55:25.375Z,100931.53
2022-12-25T09:58:08.765Z,100925.59
2022-12-25T10:00:47.337Z,100924.56
2022-12-25T10:03:29.667Z,100918.72
2022-12-25T10:06:20.736Z,100925.06
2022-12-25T10:09:10.837Z,100928.81
2022-12-25T10:12:34.823Z,100939.25
2022-12-25T10:15:21.289Z,100938.91
2022-12-25T10:18:13.148Z,100940.00
2022-12-25T10:20:55.900Z,100942.16
2022-12-25T10:23:58.192Z,100941.97
2022-12-25T10:26:33.884Z,100936.59
2022-12-25T10:29:18.013Z,100938.78
2022-12-25T10:31:54.863Z,100940.72
2022-12-25T10:34:27.840Z,100944.34
2022-12-25T10:37:00.948Z,100934.66
2022-12-25T10:39:33.867Z,100935.13
2022-12-25T10:42:39.234Z,100935.44
2022-12-25T10:45:12.584Z,100940.84
2022-12-25T10:47:45.683Z,100929.84
2022-12-25T10:50:24.723Z,100930.69
2022-12-25T10:53:09.080Z,100940.41
2022-12-25T10:55:42.339Z,100929.22
2022-12-25T10:58:20.126Z,100920.78
2022-12-25T11:01:04.879Z,100929.25
2022-12-25T11:03:40.462Z,100934.25
2022-12-25T11:06:25.931Z,100924.59
2022-12-25T11:09:01.849Z,100935.97
2022-12-25T11:11:37.987Z,100933.50
2022-12-25T11:14:19.168Z,100921.47
2022-12-25T11:16:52.341Z,100922.34
2022-12-25T11:19:32.481Z,100921.09
2022-12-25T11:22:17.708Z,100923.03
2022-12-25T11:24:50.936Z,100929.75
2022-12-25T11:27:29.263Z,100925.75
2022-12-25T11:30:04.705Z,100931.38
2022-12-25T11:32:45.450Z,100928.44
2022-12-25T11:35:18.969Z,100933.78
2022-12-25T11:37:55.223Z,100926.78
2022-12-25T11:40:36.727Z,100924.69
2022-12-25T11:43:43.598Z,100925.22
2022-12-25T11:46:38.548Z,100921.72
2022-12-25T11:49:20.143Z,100922.53
2022-12-25T11:51:56.474Z,100922.50
2022-12-25T11:54:45.314Z,100922.25
2022-12-25T11:57:18.943Z,100926.88
2022-12-25T12:00:02.120Z,100931.31
2022-12-25T12:02:59.001Z,100929.88
2022-12-25T12:05:42.731Z,100928.75
2022-12-25T12:08:15.806Z,100924.97
2022-12-25T12:11:21.748Z,100928.88
2022-12-25T12:14:06.625Z,100935.84
2022-12-25T12:16:39.693Z,100932.41
2022-12-25T12:19:26.607Z,100935.22
2022-12-25T12:22:03.099Z,100932.78
2022-12-25T12:24:42.849Z,100932.47
2022-12-25T12:27:36.638Z,100923.91
2022-12-25T12:30:29.198Z,100932.19
2022-12-25T12:33:06.075Z,100936.50
2022-12-25T12:35:40.451Z,100930.03
2022-12-25T12:38:13.527Z,100924.91
2022-12-25T12:40:55.618Z,100932.44
2022-12-25T12:43:39.734Z,100922.78
2022-12-25T12:46:31.016Z,100935.34
2022-12-25T12:49:20.887Z,100933.47
2022-12-25T12:52:24.840Z,100934.28
2022-12-25T12:55:06.618Z,100935.88
2022-12-25T12:57:39.922Z,100939.63
2022-12-25T13:00:18.777Z,100939.63
2022-12-25T13:03:16.553Z,100944.97
2022-12-25T13:06:20.322Z,100942.25
2022-12-25T13:09:41.435Z,100943.59
2022-12-25T13:12:17.046Z,100939.06
2022-12-25T13:14:50.724Z,100942.78
2022-12-25T13:17:25.867Z,100945.47
2022-12-25T13:20:01.162Z,100946.75
2022-12-25T13:22:36.453Z,100947.28
2022-12-25T13:25:16.326Z,100953.44
2022-12-25T13:27:58.561Z,100954.22
2022-12-25T13:30:32.847Z,100951.25
2022-12-25T13:33:06.653Z,100962.28
2022-12-25T13:35:43.673Z,100954.22
2022-12-25T13:38:17.970Z,100956.34
2022-12-25T13:40:52.973Z,100959.81
2022-12-25T13:43:26.934Z,100960.63
2022-12-25T13:45:59.979Z,100961.09
2022-12-25T13:48:33.335Z,100960.31
2022-12-25T13:51:14.958Z,100965.13
2022-12-25T13:53:47.876Z,100968.84
2022-12-25T13:56:21.077Z,100971.47
2022-12-25T13:58:54.282Z,100965.84
2022-12-25T14:01:28.495Z,100957.00
2022-12-25T14:04:01.737Z,100961.00
2022-12-25T14:06:34.867Z,100958.81
2022-12-25T14:09:12.158Z,100957.44
2022-12-25T14:11:50.301Z,100961.13
2022-12-25T14:14:25.696Z,100959.78
2022-12-25T14:17:01.611Z,100953.81
2022-12-25T14:19:41.524Z,100966.16
2022-12-25T14:22:23.960Z,100964.81
2022-12-25T14:25:02.995Z,100970.09
2022-12-25T14:27:48.434Z,100980.75
2022-12-25T14:30:23.887Z,100974.78
2022-12-25T14:32:57.807Z,100983.84
2022-12-25T14:35:31.301Z,100985.44
2022-12-25T14:38:06.467Z,100978.66
2022-12-25T14:40:39.501Z,100989.84
2022-12-25T14:43:28.005Z,100985.78
2022-12-25T14:46:03.674Z,100972.94
2022-12-25T14:48:36.664Z,100970.75
2022-12-25T14:51:16.829Z,100981.69
2022-12-25T14:53:53.320Z,100982.47
2022-12-25T14:56:30.406Z,100974.38
2022-12-25T14:59:05.337Z,100973.22
2022-12-25T15:01:41.288Z,100981.13
2022-12-25T15:04:17.517Z,100993.06
2022-12-25T15:07:01.918Z,100991.00
2022-12-25T15:09:35.550Z,101002.28
2022-12-25T15:12:08.808Z,100997.22
2022-12-25T15:14:41.845Z,101006.28
2022-12-25T15:17:27.476Z,101000.88
2022-12-25T15:20:01.716Z,101008.44
2022-12-25T15:22:53.923Z,101009.09
2022-12-25T15:25:29.683Z,101009.31
2022-12-25T15:28:12.534Z,101015.34
2022-12-25T15:30:46.415Z,101017.69
2022-12-25T15:33:19.710Z,101011.97
2022-12-25T15:35:52.818Z,101018.00
2022-12-25T15:38:25.893Z,101018.56
2022-12-25T15:40:59.258Z,101024.84
2022-12-25T15:43:41.813Z,101026.63
2022-12-25T15:46:17.423Z,101029.78
2022-12-25T15:48:50.568Z,101035.53
2022-12-25T15:51:24.351Z,101045.66
2022-12-25T15:53:57.666Z,101034.84
2022-12-25T15:56:50.209Z,101035.72
2022-12-25T15:59:26.315Z,101032.59
2022-12-25T16:02:01.596Z,101042.22
2022-12-25T16:04:34.785Z,101043.13
2022-12-25T16:07:16.929Z,101047.06
2022-12-25T16:09:50.349Z,101057.00
2022-12-25T16:12:23.777Z,101053.78
2022-12-25T16:14:56.914Z,101064.22
2022-12-25T16:17:29.945Z,101056.56
2022-12-25T16:20:03.800Z,101059.03
2022-12-25T16:22:36.794Z,101060.88
2022-12-25T16:25:19.908Z,101067.50
2022-12-25T16:27:52.733Z,101062.41
2022-12-25T16:30:25.804Z,101061.81
2022-12-25T16:32:59.211Z,101062.03
2022-12-25T16:35:33.167Z,101060.06
2022-12-25T16:38:07.752Z,101074.97
2022-12-25T16:40:43.229Z,101071.53
2022-12-25T16:43:21.903Z,101082.63
2022-12-25T16:45:56.963Z,101094.19
2022-12-25T16:48:30.001Z,101094.19
2022-12-25T16:51:29.288Z,101100.38
2022-12-25T16:54:02.494Z,101115.16
2022-12-25T16:56:35.678Z,101107.06
2022-12-25T16:59:08.681Z,101115.75
2022-12-25T17:01:42.279Z,101111.00
2022-12-25T17:04:15.474Z,101118.09
2022-12-25T17:06:49.114Z,101117.16
2022-12-25T17:09:22.193Z,101118.75
2022-12-25T17:11:56.585Z,101121.06
2022-12-25T17:14:29.870Z,101119.69
2022-12-25T17:17:03.056Z,101128.03
2022-12-25T17:19:36.560Z,101130.50
2022-12-25T17:22:09.723Z,101129.53
2022-12-25T17:24:42.863Z,101135.09
2022-12-25T17:27:18.972Z,101133.38
2022-12-25T17:29:52.151Z,101135.66
2022-12-25T17:32:25.037Z,101138.31
2022-12-25T17:34:58.729Z,101147.66
2022-12-25T17:37:33.743Z,101150.22
2022-12-25T17:40:07.573Z,101150.16
2022-12-25T17:42:41.632Z,101144.97
2022-12-25T17:45:15.031Z,101130.69
2022-12-25T17:47:53.206Z,101133.19
2022-12-25T17:50:29.780Z,101134.09
2022-12-25T17:53:02.725Z,101124.13
2022-12-25T17:55:38.548Z,101121.75
2022-12-25T17:58:13.107Z,101119.41
2022-12-25T18:00:46.231Z,101113.34
2022-12-25T18:03:20.336Z,101107.16
2022-12-25T18:05:53.707Z,101112.28
2022-12-25T18:08:27.511Z,101117.38
2022-12-25T18:11:06.319Z,101118.31
2022-12-25T18:13:39.905Z,101115.97
2022-12-25T18:16:14.217Z,101123.56
2022-12-25T18:18:52.296Z,101114.47
2022-12-25T18:21:26.246Z,101107.91
2022-12-25T18:23:59.436Z,101109.97
2022-12-25T18:26:33.672Z,101110.00
2022-12-25T18:29:06.871Z,101106.22
2022-12-25T18:31:39.922Z,101109.53
2022-12-25T18:34:12.918Z,101127.44
2022-12-25T18:36:45.894Z,101124.06
2022-12-25T18:39:18.975Z,101126.66
2022-12-25T18:41:52.289Z,101117.88
2022-12-25T18:44:25.389Z,101123.09
2022-12-25T18:46:58.724Z,101124.47
2022-12-25T18:49:32.730Z,101117.22
2022-12-25T18:52:48.592Z,101116.22
2022-12-25T18:54:58.829Z,101112.06
2022-12-25T18:57:31.794Z,101126.81
2022-12-25T19:00:05.646Z,101134.66
2022-12-25T19:02:38.862Z,101142.03
2022-12-25T19:05:12.416Z,101148.06
2022-12-25T19:07:45.341Z,101148.28
2022-12-25T19:10:18.118Z,101156.09
2022-12-25T19:12:50.935Z,101147.53
2022-12-25T19:15:24.010Z,101148.09
2022-12-25T19:17:57.025Z,101142.00
2022-12-25T19:20:29.888Z,101150.63
2022-12-25T19:23:02.949Z,101151.66
2022-12-25T19:25:39.000Z,101165.81
2022-12-25T19:28:12.328Z,101160.34
2022-12-25T19:30:45.184Z,101169.13
2022-12-25T19:33:18.710Z,101167.13
2022-12-25T19:35:53.410Z,101169.38
2022-12-25T19:38:26.480Z,101167.59
2022-12-25T19:40:59.481Z,101168.88
2022-12-25T19:43:35.164Z,101164.97
2022-12-25T19:46:14.849Z,101170.19
2022-12-25T19:48:48.167Z,101162.84
2022-12-25T19:51:24.446Z,101161.94
2022-12-25T19:53:57.386Z,101169.56
2022-12-25T19:56:33.527Z,101173.81
2022-12-25T19:59:06.737Z,101178.28
2022-12-25T20:01:39.704Z,101180.66
2022-12-25T20:04:14.860Z,101175.81
2022-12-25T20:06:47.711Z,101180.38
2022-12-25T20:09:21.751Z,101179.97
2022-12-25T20:11:54.972Z,101176.88
2022-12-25T20:14:28.297Z,101178.97
2022-12-25T20:17:01.412Z,101173.50
2022-12-25T20:19:34.370Z,101172.69
2022-12-25T20:22:07.510Z,101176.75
2022-12-25T20:24:40.401Z,101170.25
2022-12-25T20:27:13.317Z,101165.72
2022-12-25T20:29:46.494Z,101159.81
2022-12-25T20:32:19.597Z,101163.88
2022-12-25T20:35:05.636Z,101167.91
2022-12-25T20:37:51.273Z,101168.41
2022-12-25T20:40:24.244Z,101164.63
2022-12-25T20:42:57.189Z,101157.22
2022-12-25T20:45:30.311Z,101162.31
2022-12-25T20:48:03.527Z,101159.25
2022-12-25T20:50:36.452Z,101163.88
2022-12-25T20:53:09.224Z,101170.47
2022-12-25T20:55:49.732Z,101160.63
2022-12-25T20:58:25.785Z,101170.38
2022-12-25T21:00:59.385Z,101154.38
2022-12-25T21:03:34.115Z,101156.41
2022-12-25T21:06:08.345Z,101149.06
2022-12-25T21:08:41.362Z,101144.41
2022-12-25T21:11:14.629Z,101149.69
2022-12-25T21:13:50.429Z,101144.66
2022-12-25T21:16:26.209Z,101150.72
2022-12-25T21:18:59.920Z,101146.69
2022-12-25T21:21:36.120Z,101143.00
2022-12-25T21:24:12.204Z,101156.44
2022-12-25T21:26:48.106Z,101145.69
2022-12-25T21:29:23.916Z,101139.59
2022-12-25T21:31:56.850Z,101141.84
2022-12-25T21:34:31.468Z,101137.34
2022-12-25T21:37:09.933Z,101140.66
2022-12-25T21:39:48.726Z,101147.16
2022-12-25T21:42:21.968Z,101151.19
2022-12-25T21:44:55.040Z,101152.63
2022-12-25T21:47:59.759Z,101152.22
2022-12-25T21:50:28.182Z,101145.50
2022-12-25T21:53:05.572Z,101156.09
2022-12-25T21:55:38.938Z,101156.91
2022-12-25T21:58:14.542Z,101173.59
2022-12-25T22:00:47.644Z,101169.13
2022-12-25T22:03:20.974Z,101171.56
2022-12-25T22:06:04.108Z,101172.16
2022-12-25T22:08:40.778Z,101178.91
2022-12-25T22:11:13.795Z,101180.09
2022-12-25T22:13:46.764Z,101181.13
2022-12-25T22:16:19.621Z,101190.91
2022-12-25T22:18:52.384Z,101199.22
2022-12-25T22:21:25.768Z,101205.31
2022-12-25T22:24:00.131Z,101204.31
2022-12-25T22:26:36.281Z,101208.53
2022-12-25T22:29:09.379Z,101209.50
2022-12-25T22:31:46.686Z,101216.63
2022-12-25T22:34:20.153Z,101210.59
2022-12-25T22:36:53.171Z,101215.44
2022-12-25T22:39:27.367Z,101204.44
2022-12-25T22:42:01.707Z,101208.50
2022-12-25T22:44:35.687Z,101203.69
2022-12-25T22:47:11.028Z,101213.81
2022-12-25T22:49:46.860Z,101216.84
2022-12-25T22:52:20.702Z,101215.38
2022-12-25T22:54:54.111Z,101215.56
2022-12-25T22:57:29.399Z,101214.78
2022-12-25T23:00:02.706Z,101218.06
2022-12-25T23:02:36.839Z,101228.34
2022-12-25T23:05:12.423Z,101227.66
2022-12-25T23:07:48.360Z,101225.19
2022-12-25T23:10:26.873Z,101227.41
2022-12-25T23:13:02.334Z,101231.47
2022-12-25T23:15:38.205Z,101228.81
2022-12-25T23:18:14.839Z,101229.41
2022-12-25T23:20:48.287Z,101226.97
2022-12-25T23:23:21.345Z,101220.41
2022-12-25T23:25:54.753Z,101221.00
2022-12-25T23:28:28.907Z,101220.09
2022-12-25T23:31:05.481Z,101211.94
2022-12-25T23:33:38.498Z,101212.31
2022-12-25T23:36:14.363Z,101210.13
2022-12-25T23:38:53.955Z,101207.00
2022-12-25T23:41:30.021Z,101200.28
2022-12-25T23:44:03.979Z,101206.38
2022-12-25T23:46:37.358Z,101212.41
2022-12-25T23:49:14.267Z,101220.88
2022-12-25T23:51:51.698Z,101235.13
2022-12-25T23:54:29.773Z,101245.44
2022-12-25T23:57:09.139Z,101254.66
2022-12-25T23:59:41.974Z,101246.13
